Felts Field
KSFF : now visible

Aeroporto :











RITROVATECI SU...

 
LOGIN :

Iscrizione | Disclaimer

   EN    FR    IT 

 









Sommario :    VFR   VFR Marginale   IFR   IFR Intensivo   IFR Molto Intensivo
Visibilità : 
Base nubi : 
>= 8 km
>= 3000ft
5 / 8 km
1000 / 3000 ft
1500m / 5 km
500 / 1000 ft
800 / 1500m
200 / 500 ft
< 800m
< 200 ft
Simboli :   Temporali  Nebbia  Neve Forte  Precipitazioni Forti  Vento > 20 kt






- Altitudine del aeroporto : 1953 ft


KSFF - Felts Field

ULTIMO METAR :
  • 050253Z 09003KT 5SM BR OVC003 M01/M02 A3053 RMK AO2 SLP358 I3001 T10111017 55011

METARs OBSOLETI :
  • 050209Z 09005KT 5SM BR BKN006 M01/M02 A3053 RMK AO2 T10111022
  • 050153Z 06003KT 6SM BR SCT005 M01/M02 A3053 RMK AO2 SLP358 I1001 T10111022
  • 050053Z 00000KT 6SM BR SCT006 M01/M02 A3054 RMK AO2 SLP364 T10061017
  • 042353Z 00000KT 5SM BR OVC006 01/M01 A3056 RMK AO2 SLP370 T00061006 10006 21011 58004

TAF KSFF
Valido dal 05 a 00 ore il 06 a 00 ore UTC


042320Z 0500/0524 VRB02KT 6SM BR OVC005
FM050600 00000KT 3SM BR OVC003
FM051200 22003KT 1/2SM FZFG OVC002
FM051800 VRB02KT 6SM BR OVC007
FIR KZSE / America del Nord



MetMap, La meteo Aeronautica in un colpo d'occhio ! - Copyright ORBIFLY Dicembre 2007 - Disclaimer

ORBIFLY MET'MAP TEAM :

Programmazione e sviluppo : Alexandra Zaïnal
Concezione : Baudouin d'Aumeries
Aiuto per la programmazione : Marc-Olivier Méhu
Supporto tecnico e logistico : Manuel Goepfert
Aiuto per la traduzione : Arnaldo La Scala

Contatto : metmap@orbifly.com




FONTI E CREDITI :

   NOAA       Earth
Advisory